createdAt,value
2018-05-29T00:00:06.592Z,13.56
2018-05-29T00:01:06.468Z,13.56
2018-05-29T00:02:06.354Z,13.58
2018-05-29T00:03:06.227Z,13.55
2018-05-29T00:04:06.107Z,13.55
2018-05-29T00:05:05.984Z,13.59
2018-05-29T00:06:05.862Z,13.59
2018-05-29T00:07:05.743Z,13.61
2018-05-29T00:08:05.619Z,13.56
2018-05-29T00:09:05.495Z,13.61
2018-05-29T00:10:05.373Z,13.55
2018-05-29T00:11:05.251Z,13.56
2018-05-29T00:12:05.133Z,13.54
2018-05-29T00:13:05.010Z,13.63
2018-05-29T00:14:04.889Z,13.56
2018-05-29T00:15:04.765Z,13.63
2018-05-29T00:16:04.643Z,13.58
2018-05-29T00:17:04.520Z,13.52
2018-05-29T00:18:04.399Z,13.52
2018-05-29T00:19:04.280Z,13.52
2018-05-29T00:20:04.157Z,13.55
2018-05-29T00:21:04.031Z,13.56
2018-05-29T00:22:03.914Z,13.54
2018-05-29T00:23:03.789Z,13.52
2018-05-29T00:24:03.669Z,13.49
2018-05-29T00:25:03.542Z,13.52
2018-05-29T00:26:03.421Z,13.56
2018-05-29T00:27:03.300Z,13.59
2018-05-29T00:28:03.178Z,13.54
2018-05-29T00:29:03.059Z,13.55
2018-05-29T00:30:02.936Z,13.58
2018-05-29T00:31:02.814Z,13.62
2018-05-29T00:32:02.691Z,13.56
2018-05-29T00:33:02.566Z,13.67
2018-05-29T00:34:02.461Z,13.67
2018-05-29T00:35:02.325Z,13.67
2018-05-29T00:36:02.208Z,13.67
2018-05-29T00:37:02.077Z,13.71
2018-05-29T00:38:01.959Z,13.65
2018-05-29T00:39:01.835Z,13.67
2018-05-29T00:40:01.714Z,13.71
2018-05-29T00:41:01.593Z,13.69
2018-05-29T00:42:01.476Z,13.69
2018-05-29T00:43:01.352Z,13.76
2018-05-29T00:44:01.227Z,13.76
2018-05-29T00:45:01.104Z,13.79
2018-05-29T00:46:00.984Z,13.79
2018-05-29T00:47:00.863Z,13.71
2018-05-29T00:48:00.739Z,13.65
2018-05-29T00:49:00.620Z,13.59
2018-05-29T00:50:00.494Z,13.62
2018-05-29T00:51:00.376Z,13.71
2018-05-29T00:52:00.249Z,13.71
2018-05-29T00:53:00.130Z,13.76
2018-05-29T00:54:00.009Z,13.76
2018-05-29T00:54:59.887Z,13.77
2018-05-29T00:55:59.761Z,13.70
2018-05-29T00:56:59.647Z,13.65
2018-05-29T00:57:59.522Z,13.69
2018-05-29T00:58:59.396Z,13.61
2018-05-29T00:59:59.273Z,13.59
2018-05-29T01:00:59.156Z,13.71
2018-05-29T01:01:59.030Z,13.65
2018-05-29T01:02:58.912Z,13.63
2018-05-29T01:03:58.789Z,13.65
2018-05-29T01:04:58.665Z,13.62
2018-05-29T01:05:58.547Z,13.61
2018-05-29T01:06:58.422Z,13.65
2018-05-29T01:07:58.305Z,13.52
2018-05-29T01:08:58.178Z,13.55
2018-05-29T01:09:58.057Z,13.44
2018-05-29T01:10:57.934Z,13.51
2018-05-29T01:11:57.814Z,13.44
2018-05-29T01:12:57.690Z,13.43
2018-05-29T01:13:57.569Z,13.44
2018-05-29T01:14:57.447Z,13.49
2018-05-29T01:15:57.333Z,13.49
2018-05-29T01:16:57.204Z,13.43
2018-05-29T01:17:57.081Z,13.46
2018-05-29T01:18:56.960Z,13.51
2018-05-29T01:19:56.837Z,13.43
2018-05-29T01:20:56.718Z,13.46
2018-05-29T01:21:56.593Z,13.41
2018-05-29T01:22:56.472Z,13.49
2018-05-29T01:23:56.351Z,13.40
2018-05-29T01:24:56.230Z,13.56
2018-05-29T01:25:56.108Z,13.58
2018-05-29T01:26:55.986Z,13.61
2018-05-29T01:27:55.861Z,13.54
2018-05-29T01:28:55.740Z,13.56
2018-05-29T01:29:55.618Z,13.54
2018-05-29T01:30:55.496Z,13.70
2018-05-29T01:31:55.373Z,13.70
2018-05-29T01:32:55.251Z,13.79
2018-05-29T01:33:55.129Z,13.77
2018-05-29T01:34:55.009Z,13.77
2018-05-29T01:35:54.888Z,13.59
2018-05-29T01:36:54.763Z,13.37
2018-05-29T01:37:54.643Z,13.18
2018-05-29T01:38:54.519Z,13.02
2018-05-29T01:39:54.398Z,12.84
2018-05-29T01:40:54.278Z,12.75
2018-05-29T01:41:54.154Z,12.74
2018-05-29T01:42:54.033Z,12.67
2018-05-29T01:43:53.908Z,12.66
2018-05-29T01:44:53.784Z,12.66
2018-05-29T01:45:53.663Z,12.62
2018-05-29T01:46:53.541Z,12.74
2018-05-29T01:47:53.418Z,12.74
2018-05-29T01:48:53.305Z,12.71
2018-05-29T01:49:53.175Z,12.81
2018-05-29T01:50:53.053Z,12.71
2018-05-29T01:51:52.930Z,12.78
2018-05-29T01:52:52.806Z,12.85
2018-05-29T01:53:52.684Z,12.92
2018-05-29T01:54:52.568Z,12.85
2018-05-29T01:55:52.437Z,12.82
2018-05-29T01:56:52.318Z,12.85
2018-05-29T01:57:52.194Z,12.87
2018-05-29T01:58:52.071Z,12.93
2018-05-29T01:59:51.953Z,12.89
2018-05-29T02:00:51.825Z,12.95
2018-05-29T02:01:51.704Z,12.97
2018-05-29T02:02:51.582Z,12.99
2018-05-29T02:03:51.458Z,12.95
2018-05-29T02:04:51.338Z,13.00
2018-05-29T02:05:51.215Z,13.00
2018-05-29T02:06:51.098Z,13.09
2018-05-29T02:07:50.972Z,13.00
2018-05-29T02:08:50.846Z,13.00
2018-05-29T02:09:50.724Z,13.00
2018-05-29T02:10:50.601Z,13.00
2018-05-29T02:11:50.477Z,13.03
2018-05-29T02:12:50.357Z,13.14
2018-05-29T02:13:50.233Z,13.21
2018-05-29T02:14:50.111Z,13.18
2018-05-29T02:15:49.988Z,13.18
2018-05-29T02:16:49.867Z,13.18
2018-05-29T02:17:49.744Z,13.18
2018-05-29T02:18:49.622Z,13.14
2018-05-29T02:19:49.496Z,13.14
2018-05-29T02:20:49.377Z,13.12
2018-05-29T02:21:49.255Z,13.18
2018-05-29T02:22:49.131Z,13.20
2018-05-29T02:23:49.008Z,13.22
2018-05-29T02:24:48.889Z,13.36
2018-05-29T02:25:48.764Z,13.32
2018-05-29T02:26:48.644Z,13.24
2018-05-29T02:27:48.518Z,13.24
2018-05-29T02:28:48.397Z,13.02
2018-05-29T02:29:48.276Z,12.78
2018-05-29T02:30:48.153Z,12.78
2018-05-29T02:31:48.031Z,12.70
2018-05-29T02:32:47.908Z,12.38
2018-05-29T02:33:47.787Z,12.33
2018-05-29T02:34:47.666Z,12.41
2018-05-29T02:35:47.540Z,12.21
2018-05-29T02:36:47.421Z,12.26
2018-05-29T02:37:47.298Z,11.96
2018-05-29T02:38:47.177Z,11.86
2018-05-29T02:39:47.052Z,12.02
2018-05-29T02:40:46.932Z,12.06
2018-05-29T02:41:46.806Z,12.08
2018-05-29T02:42:46.684Z,11.99
2018-05-29T02:43:46.562Z,11.86
2018-05-29T02:44:46.439Z,11.83
2018-05-29T02:45:46.317Z,11.77
2018-05-29T02:46:46.199Z,11.75
2018-05-29T02:47:46.072Z,11.74
2018-05-29T02:48:45.952Z,11.70
2018-05-29T02:49:45.825Z,11.64
2018-05-29T02:50:45.704Z,11.59
2018-05-29T02:51:45.580Z,11.61
2018-05-29T02:52:45.457Z,11.57
2018-05-29T02:53:45.330Z,11.59
2018-05-29T02:54:45.208Z,11.70
2018-05-29T02:55:45.085Z,11.67
2018-05-29T02:56:44.966Z,11.71
2018-05-29T02:57:44.843Z,11.68
2018-05-29T02:58:44.716Z,11.80
2018-05-29T02:59:44.598Z,11.67
2018-05-29T03:00:44.470Z,11.64
2018-05-29T03:01:44.347Z,11.54
2018-05-29T03:02:44.223Z,11.52
2018-05-29T03:03:44.103Z,11.65
2018-05-29T03:04:43.979Z,11.56
2018-05-29T03:05:43.854Z,11.71
2018-05-29T03:06:43.734Z,11.78
2018-05-29T03:07:43.611Z,11.78
2018-05-29T03:08:43.489Z,11.67
2018-05-29T03:09:43.362Z,11.78
2018-05-29T03:10:43.239Z,11.82
2018-05-29T03:11:43.115Z,11.74
2018-05-29T03:12:42.992Z,11.75
2018-05-29T03:13:42.868Z,11.77
2018-05-29T03:14:42.745Z,11.82
2018-05-29T03:15:42.624Z,11.71
2018-05-29T03:16:42.499Z,11.71
2018-05-29T03:17:42.379Z,11.65
2018-05-29T03:18:42.260Z,11.71
2018-05-29T03:19:42.132Z,11.72
2018-05-29T03:20:42.008Z,11.72
2018-05-29T03:21:41.883Z,11.80
2018-05-29T03:22:41.762Z,11.82
2018-05-29T03:23:41.636Z,11.75
2018-05-29T03:24:41.516Z,11.64
2018-05-29T03:25:41.391Z,11.56
2018-05-29T03:26:41.271Z,11.50
2018-05-29T03:27:41.149Z,11.53
2018-05-29T03:28:41.023Z,11.57
2018-05-29T03:29:40.906Z,11.67
2018-05-29T03:30:40.776Z,11.77
2018-05-29T03:31:40.652Z,11.71
2018-05-29T03:32:40.530Z,11.75
2018-05-29T03:33:40.407Z,11.68
2018-05-29T03:34:40.285Z,11.75
2018-05-29T03:35:40.162Z,11.82
2018-05-29T03:36:40.035Z,11.80
2018-05-29T03:37:39.920Z,11.71
2018-05-29T03:38:39.789Z,11.80
2018-05-29T03:39:39.666Z,11.85
2018-05-29T03:40:39.543Z,11.97
2018-05-29T03:41:39.422Z,11.90
2018-05-29T03:42:39.297Z,11.87
2018-05-29T03:43:39.175Z,11.99
2018-05-29T03:44:39.050Z,11.83
2018-05-29T03:45:38.927Z,11.77
2018-05-29T03:46:38.805Z,11.77
2018-05-29T03:47:38.682Z,11.74
2018-05-29T03:48:38.558Z,11.85
2018-05-29T03:49:38.436Z,11.80
2018-05-29T03:50:38.313Z,11.75
2018-05-29T03:51:38.188Z,11.77
2018-05-29T03:52:38.065Z,11.68
2018-05-29T03:53:37.943Z,11.70
2018-05-29T03:54:37.819Z,11.70
2018-05-29T03:55:37.695Z,11.78
2018-05-29T03:56:37.571Z,11.78
2018-05-29T03:57:37.452Z,11.86
2018-05-29T03:58:37.325Z,11.85
2018-05-29T03:59:37.202Z,11.86
2018-05-29T04:00:37.082Z,11.83
2018-05-29T04:01:36.957Z,11.89
2018-05-29T04:02:36.831Z,11.96
2018-05-29T04:03:36.710Z,11.90
2018-05-29T04:04:36.590Z,12.05
2018-05-29T04:05:36.467Z,12.05
2018-05-29T04:06:36.343Z,12.11
2018-05-29T04:07:36.224Z,12.16
2018-05-29T04:08:36.097Z,12.20
2018-05-29T04:09:35.977Z,12.12
2018-05-29T04:10:35.852Z,12.15
2018-05-29T04:11:35.728Z,12.27
2018-05-29T04:12:35.604Z,12.27
2018-05-29T04:13:35.482Z,12.33
2018-05-29T04:14:35.358Z,12.34
2018-05-29T04:15:35.237Z,12.20
2018-05-29T04:16:35.113Z,12.24
2018-05-29T04:17:34.991Z,12.15
2018-05-29T04:18:34.870Z,12.20
2018-05-29T04:19:34.744Z,12.15
2018-05-29T04:20:34.624Z,12.21
2018-05-29T04:21:34.499Z,12.16
2018-05-29T04:22:34.377Z,12.20
2018-05-29T04:23:34.252Z,12.11
2018-05-29T04:24:34.131Z,12.13
2018-05-29T04:25:34.010Z,12.12
2018-05-29T04:26:33.886Z,12.01
2018-05-29T04:27:33.762Z,12.05
2018-05-29T04:28:33.638Z,12.12
2018-05-29T04:29:33.516Z,12.04
2018-05-29T04:30:33.394Z,12.08
2018-05-29T04:31:33.269Z,12.02
2018-05-29T04:32:33.145Z,11.86
2018-05-29T04:33:33.027Z,11.85
2018-05-29T04:34:32.903Z,12.02
2018-05-29T04:35:32.776Z,12.05
2018-05-29T04:36:32.659Z,12.04
2018-05-29T04:37:32.535Z,12.16
2018-05-29T04:38:32.597Z,12.21
2018-05-29T04:39:32.298Z,12.19
2018-05-29T04:40:32.162Z,12.21
2018-05-29T04:41:32.041Z,12.26
2018-05-29T04:42:31.915Z,12.23
2018-05-29T04:43:31.792Z,12.20
2018-05-29T04:44:31.685Z,12.16
2018-05-29T04:45:31.547Z,12.33
2018-05-29T04:46:31.430Z,12.30
2018-05-29T04:47:31.302Z,12.39
2018-05-29T04:48:31.179Z,12.41
2018-05-29T04:49:31.056Z,12.48
2018-05-29T04:50:30.944Z,12.63
2018-05-29T04:51:30.810Z,12.69
2018-05-29T04:52:30.687Z,12.77
2018-05-29T04:53:30.566Z,12.74
2018-05-29T04:54:30.441Z,12.64
2018-05-29T04:55:30.317Z,12.57
2018-05-29T04:56:30.251Z,12.64
2018-05-29T04:57:30.074Z,12.66
2018-05-29T04:58:29.949Z,12.64
2018-05-29T04:59:29.851Z,12.75
2018-05-29T05:00:29.705Z,12.70
2018-05-29T05:01:29.583Z,12.75
2018-05-29T05:02:29.507Z,12.77
2018-05-29T05:03:29.334Z,12.85
2018-05-29T05:04:29.213Z,12.92
2018-05-29T05:05:29.091Z,12.82
2018-05-29T05:06:28.968Z,12.89
2018-05-29T05:07:28.849Z,12.96
2018-05-29T05:08:28.722Z,12.84
2018-05-29T05:09:28.600Z,12.89
2018-05-29T05:10:28.477Z,12.87
2018-05-29T05:11:28.356Z,13.02
2018-05-29T05:12:28.231Z,13.02
2018-05-29T05:13:28.110Z,13.06
2018-05-29T05:14:27.989Z,13.02
2018-05-29T05:15:27.865Z,13.14
2018-05-29T05:16:27.742Z,13.22
2018-05-29T05:17:27.618Z,13.27
2018-05-29T05:18:27.498Z,13.30
2018-05-29T05:19:27.376Z,13.41
2018-05-29T05:20:27.253Z,13.40
2018-05-29T05:21:27.131Z,13.43
2018-05-29T05:22:27.011Z,13.43
2018-05-29T05:23:26.887Z,13.44
2018-05-29T05:24:26.768Z,13.41
2018-05-29T05:25:26.644Z,13.44
2018-05-29T05:26:26.518Z,13.56
2018-05-29T05:27:26.399Z,13.54
2018-05-29T05:28:26.279Z,13.61
2018-05-29T05:29:26.154Z,13.59
2018-05-29T05:30:26.034Z,13.61
2018-05-29T05:31:25.909Z,13.55
2018-05-29T05:32:25.787Z,13.77
2018-05-29T05:33:25.668Z,13.74
2018-05-29T05:34:25.580Z,13.83
2018-05-29T05:35:25.482Z,13.84
2018-05-29T05:36:25.299Z,13.81
2018-05-29T05:37:25.176Z,13.87
2018-05-29T05:38:25.055Z,13.87
2018-05-29T05:39:24.933Z,13.83
2018-05-29T05:40:24.811Z,13.87
2018-05-29T05:41:24.687Z,13.92
2018-05-29T05:42:24.571Z,13.99
2018-05-29T05:43:24.448Z,13.88
2018-05-29T05:44:24.322Z,13.88
2018-05-29T05:45:24.203Z,13.95
2018-05-29T05:46:24.080Z,13.95
2018-05-29T05:47:23.958Z,14.02
2018-05-29T05:48:23.838Z,14.06
2018-05-29T05:49:23.719Z,14.10
2018-05-29T05:50:23.595Z,14.14
2018-05-29T05:51:23.473Z,14.19
2018-05-29T05:52:23.349Z,14.21
2018-05-29T05:53:23.228Z,14.29
2018-05-29T05:54:23.110Z,14.37
2018-05-29T05:55:22.986Z,14.44
2018-05-29T05:56:22.864Z,14.44
2018-05-29T05:57:22.743Z,14.47
2018-05-29T05:58:22.619Z,14.50
2018-05-29T05:59:22.497Z,14.54
2018-05-29T06:00:22.376Z,14.61
2018-05-29T06:01:22.258Z,14.62
2018-05-29T06:02:22.140Z,14.57
2018-05-29T06:03:22.014Z,14.64
2018-05-29T06:04:21.892Z,14.68
2018-05-29T06:05:21.769Z,14.68
2018-05-29T06:06:21.653Z,14.81
2018-05-29T06:07:21.528Z,15.01
2018-05-29T06:08:21.405Z,15.05
2018-05-29T06:09:21.288Z,15.08
2018-05-29T06:10:21.166Z,15.23
2018-05-29T06:11:21.042Z,15.30
2018-05-29T06:12:20.922Z,15.36
2018-05-29T06:13:20.801Z,15.51
2018-05-29T06:14:20.681Z,15.64
2018-05-29T06:15:20.558Z,15.57
2018-05-29T06:16:20.451Z,15.60
2018-05-29T06:17:20.319Z,15.56
2018-05-29T06:18:20.198Z,15.63
2018-05-29T06:19:20.085Z,15.68
2018-05-29T06:20:19.958Z,15.72
2018-05-29T06:21:19.836Z,15.74
2018-05-29T06:22:19.713Z,15.78
2018-05-29T06:23:19.594Z,15.82
2018-05-29T06:24:19.539Z,15.75
2018-05-29T06:25:19.358Z,15.68
2018-05-29T06:26:19.232Z,15.81
2018-05-29T06:27:19.111Z,15.85
2018-05-29T06:28:18.993Z,15.93
2018-05-29T06:29:18.870Z,15.92
2018-05-29T06:30:18.752Z,15.93
2018-05-29T06:31:18.630Z,15.93
2018-05-29T06:32:18.509Z,15.96
2018-05-29T06:33:18.388Z,15.92
2018-05-29T06:34:18.268Z,16.03
2018-05-29T06:35:18.149Z,16.01
2018-05-29T06:36:18.026Z,15.88
2018-05-29T06:37:17.907Z,15.93
2018-05-29T06:38:17.802Z,15.93
2018-05-29T06:39:17.664Z,15.93
2018-05-29T06:40:17.544Z,15.94
2018-05-29T06:41:17.424Z,16.00
2018-05-29T06:42:17.304Z,16.11
2018-05-29T06:43:17.187Z,16.07
2018-05-29T06:44:17.065Z,16.18
2018-05-29T06:45:16.945Z,16.14
2018-05-29T06:46:16.824Z,16.20
2018-05-29T06:47:16.709Z,16.20
2018-05-29T06:48:16.583Z,16.31
2018-05-29T06:49:16.464Z,16.30
2018-05-29T06:50:16.346Z,16.31
2018-05-29T06:51:16.224Z,16.38
2018-05-29T06:52:16.106Z,16.49
2018-05-29T06:53:15.988Z,16.50
2018-05-29T06:54:15.865Z,16.58
2018-05-29T06:55:15.744Z,16.52
2018-05-29T06:56:15.624Z,16.58
2018-05-29T06:57:15.505Z,16.53
2018-05-29T06:58:15.388Z,16.68
2018-05-29T06:59:15.266Z,16.71
2018-05-29T07:00:15.146Z,16.78
2018-05-29T07:01:15.026Z,16.83
2018-05-29T07:02:14.906Z,16.95
2018-05-29T07:03:14.786Z,17.07
2018-05-29T07:04:14.702Z,16.99
2018-05-29T07:05:14.546Z,17.03
2018-05-29T07:06:14.430Z,17.13
2018-05-29T07:07:14.306Z,17.13
2018-05-29T07:08:14.190Z,17.35
2018-05-29T07:09:14.069Z,17.33
2018-05-29T07:10:13.952Z,17.29
2018-05-29T07:11:13.833Z,17.38
2018-05-29T07:12:13.711Z,17.54
2018-05-29T07:13:13.599Z,17.54
2018-05-29T07:14:13.473Z,17.63
2018-05-29T07:15:13.351Z,17.63
2018-05-29T07:16:13.232Z,17.74
2018-05-29T07:17:13.114Z,18.00
2018-05-29T07:18:12.995Z,18.13
2018-05-29T07:19:12.874Z,18.13
2018-05-29T07:20:12.754Z,18.24
2018-05-29T07:21:12.636Z,18.27
2018-05-29T07:22:12.517Z,18.37
2018-05-29T07:23:12.398Z,18.29
2018-05-29T07:24:12.282Z,18.47
2018-05-29T07:25:12.159Z,18.40
2018-05-29T07:26:12.043Z,18.46
2018-05-29T07:27:11.935Z,18.40
2018-05-29T07:28:11.806Z,18.49
2018-05-29T07:29:11.685Z,18.62
2018-05-29T07:30:11.565Z,18.72
2018-05-29T07:31:11.448Z,18.79
2018-05-29T07:32:11.330Z,18.72
2018-05-29T07:33:11.210Z,18.80
2018-05-29T07:34:11.092Z,18.80
2018-05-29T07:35:10.974Z,19.08
2018-05-29T07:36:10.856Z,19.11
2018-05-29T07:37:10.739Z,18.97
2018-05-29T07:38:10.616Z,18.58
2018-05-29T07:39:10.497Z,18.07
2018-05-29T07:40:10.382Z,17.81
2018-05-29T07:41:10.261Z,17.40
2018-05-29T07:42:10.146Z,17.26
2018-05-29T07:43:10.029Z,17.18
2018-05-29T07:44:09.906Z,17.14
2018-05-29T07:45:09.821Z,17.26
2018-05-29T07:46:09.669Z,17.33
2018-05-29T07:47:09.553Z,17.43
2018-05-29T07:48:09.437Z,17.73
2018-05-29T07:49:09.316Z,17.92
2018-05-29T07:50:09.196Z,18.00
2018-05-29T07:51:09.072Z,18.06
2018-05-29T07:52:08.962Z,18.22
2018-05-29T07:53:08.837Z,17.92
2018-05-29T07:54:08.720Z,17.78
2018-05-29T07:55:08.599Z,17.51
2018-05-29T07:56:08.483Z,17.57
2018-05-29T07:57:08.361Z,17.55
2018-05-29T07:58:08.241Z,17.48
2018-05-29T07:59:08.126Z,17.57
2018-05-29T08:00:08.005Z,17.59
2018-05-29T08:01:07.888Z,17.84
2018-05-29T08:02:07.766Z,17.87
2018-05-29T08:03:07.647Z,17.84
2018-05-29T08:04:07.528Z,17.95
2018-05-29T08:05:07.410Z,18.02
2018-05-29T08:06:07.291Z,17.54
2018-05-29T08:07:07.170Z,17.35
2018-05-29T08:08:07.056Z,17.44
2018-05-29T08:09:06.934Z,17.62
2018-05-29T08:10:06.817Z,17.87
2018-05-29T08:11:06.696Z,18.07
2018-05-29T08:12:06.580Z,18.34
2018-05-29T08:13:06.459Z,18.68
2018-05-29T08:14:06.346Z,19.17
2018-05-29T08:15:06.221Z,19.32
2018-05-29T08:16:06.112Z,19.28
2018-05-29T08:17:05.988Z,19.28
2018-05-29T08:18:05.868Z,19.50
2018-05-29T08:19:05.756Z,19.79
2018-05-29T08:20:05.631Z,20.05
2018-05-29T08:21:05.514Z,20.08
2018-05-29T08:22:05.400Z,20.12
2018-05-29T08:23:05.276Z,20.15
2018-05-29T08:24:05.159Z,20.15
2018-05-29T08:25:05.043Z,20.24
2018-05-29T08:26:04.924Z,19.76
2018-05-29T08:27:04.807Z,19.68
2018-05-29T08:28:04.690Z,19.87
2018-05-29T08:29:04.577Z,19.91
2018-05-29T08:30:04.457Z,20.18
2018-05-29T08:31:04.349Z,20.35
2018-05-29T08:32:04.221Z,20.49
2018-05-29T08:33:04.103Z,20.58
2018-05-29T08:34:03.988Z,20.71
2018-05-29T08:35:03.868Z,20.64
2018-05-29T08:36:03.752Z,20.86
2018-05-29T08:37:03.633Z,20.68
2018-05-29T08:38:03.517Z,20.51
2018-05-29T08:39:03.403Z,20.51
2018-05-29T08:40:03.287Z,20.51
2018-05-29T08:41:03.215Z,20.41
2018-05-29T08:42:03.048Z,20.30
2018-05-29T08:43:02.932Z,19.90
2018-05-29T08:44:02.814Z,19.72
2018-05-29T08:45:02.695Z,19.54
2018-05-29T08:46:02.581Z,19.40
2018-05-29T08:47:02.462Z,19.39
2018-05-29T08:48:02.347Z,19.33
2018-05-29T08:49:02.236Z,19.17
2018-05-29T08:50:02.118Z,19.01
2018-05-29T08:51:01.992Z,18.97
2018-05-29T08:52:01.883Z,18.99
2018-05-29T08:53:01.759Z,18.80
2018-05-29T08:54:01.641Z,18.90
2018-05-29T08:55:01.527Z,18.84
2018-05-29T08:56:01.405Z,18.74
2018-05-29T08:57:01.291Z,18.84
2018-05-29T08:58:01.173Z,18.86
2018-05-29T08:59:01.054Z,18.92
2018-05-29T09:00:00.938Z,18.94
2018-05-29T09:01:00.817Z,19.06
2018-05-29T09:02:00.701Z,19.13
2018-05-29T09:03:00.585Z,19.25
2018-05-29T09:04:00.476Z,19.25
2018-05-29T09:05:00.348Z,19.13
2018-05-29T09:06:00.229Z,18.50
2018-05-29T09:07:00.109Z,18.43
2018-05-29T09:07:59.997Z,18.59
2018-05-29T09:08:59.874Z,18.76
2018-05-29T09:09:59.759Z,18.90
2018-05-29T09:10:59.643Z,18.98
2018-05-29T09:11:59.522Z,18.98
2018-05-29T09:12:59.405Z,19.06
2018-05-29T09:13:59.286Z,18.94
2018-05-29T09:14:59.170Z,18.82
2018-05-29T09:15:59.054Z,18.55
2018-05-29T09:16:58.936Z,18.59
2018-05-29T09:17:58.816Z,18.72
2018-05-29T09:18:58.700Z,18.86
2018-05-29T09:19:58.599Z,19.01
2018-05-29T09:20:58.462Z,18.82
2018-05-29T09:21:58.345Z,18.77
2018-05-29T09:22:58.229Z,18.97
2018-05-29T09:23:58.111Z,18.95
2018-05-29T09:24:57.992Z,19.18
2018-05-29T09:25:57.877Z,19.14
2018-05-29T09:26:57.755Z,19.14
2018-05-29T09:27:57.639Z,19.02
2018-05-29T09:28:57.521Z,19.05
2018-05-29T09:29:57.437Z,19.23
2018-05-29T09:30:57.285Z,19.39
2018-05-29T09:31:57.200Z,19.15
2018-05-29T09:32:57.048Z,19.02
2018-05-29T09:33:56.930Z,18.83
2018-05-29T09:34:56.810Z,18.52
2018-05-29T09:35:56.695Z,18.67
2018-05-29T09:36:56.576Z,18.80
2018-05-29T09:37:56.460Z,18.97
2018-05-29T09:38:56.341Z,19.20
2018-05-29T09:39:56.221Z,19.23
2018-05-29T09:40:56.109Z,19.05
2018-05-29T09:41:55.993Z,19.08
2018-05-29T09:42:55.867Z,18.79
2018-05-29T09:43:55.750Z,18.72
2018-05-29T09:44:55.644Z,18.65
2018-05-29T09:45:55.619Z,18.61
2018-05-29T09:46:55.399Z,18.83
2018-05-29T09:47:55.280Z,19.10
2018-05-29T09:48:55.165Z,19.15
2018-05-29T09:49:55.043Z,19.25
2018-05-29T09:50:54.927Z,19.57
2018-05-29T09:51:54.808Z,19.87
2018-05-29T09:52:54.747Z,20.21
2018-05-29T09:53:54.576Z,20.24
2018-05-29T09:54:54.455Z,20.42
2018-05-29T09:55:54.338Z,20.54
2018-05-29T09:56:54.221Z,20.56
2018-05-29T09:57:54.102Z,20.59
2018-05-29T09:58:53.988Z,20.68
2018-05-29T09:59:53.871Z,20.76
2018-05-29T10:00:53.752Z,20.90
2018-05-29T10:01:53.637Z,20.90
2018-05-29T10:02:53.517Z,21.09
2018-05-29T10:03:53.405Z,21.02
2018-05-29T10:04:53.282Z,21.02
2018-05-29T10:05:53.167Z,21.23
2018-05-29T10:06:53.054Z,21.36
2018-05-29T10:07:52.940Z,21.48
2018-05-29T10:08:52.815Z,21.51
2018-05-29T10:09:52.699Z,21.69
2018-05-29T10:10:52.581Z,21.90
2018-05-29T10:11:52.466Z,21.98
2018-05-29T10:12:52.351Z,21.99
2018-05-29T10:13:52.234Z,21.97
2018-05-29T10:14:52.116Z,21.98
2018-05-29T10:15:52.001Z,21.76
2018-05-29T10:16:51.884Z,21.75
2018-05-29T10:17:51.769Z,22.01
2018-05-29T10:18:51.653Z,22.16
2018-05-29T10:19:51.536Z,22.19
2018-05-29T10:20:51.422Z,21.91
2018-05-29T10:21:51.304Z,21.94
2018-05-29T10:22:51.189Z,22.01
2018-05-29T10:23:51.081Z,22.20
2018-05-29T10:24:50.958Z,22.10
2018-05-29T10:25:50.841Z,22.01
2018-05-29T10:26:50.727Z,21.81
2018-05-29T10:27:50.610Z,21.95
2018-05-29T10:28:50.497Z,21.99
2018-05-29T10:29:50.380Z,21.99
2018-05-29T10:30:50.276Z,22.31
2018-05-29T10:31:50.147Z,22.16
2018-05-29T10:32:50.039Z,22.29
2018-05-29T10:33:49.917Z,22.29
2018-05-29T10:34:49.800Z,22.31
2018-05-29T10:35:49.688Z,22.47
2018-05-29T10:36:49.569Z,22.47
2018-05-29T10:37:49.457Z,22.41
2018-05-29T10:38:49.341Z,22.68
2018-05-29T10:39:49.228Z,22.71
2018-05-29T10:40:49.109Z,22.74
2018-05-29T10:41:48.994Z,22.87
2018-05-29T10:42:48.880Z,22.74
2018-05-29T10:43:48.763Z,22.29
2018-05-29T10:44:48.648Z,22.20
2018-05-29T10:45:48.533Z,22.25
2018-05-29T10:46:48.419Z,21.74
2018-05-29T10:47:48.303Z,21.54
2018-05-29T10:48:48.186Z,21.51
2018-05-29T10:49:48.074Z,21.48
2018-05-29T10:50:47.956Z,21.53
2018-05-29T10:51:47.850Z,21.72
2018-05-29T10:52:47.729Z,21.66
2018-05-29T10:53:47.617Z,21.78
2018-05-29T10:54:47.502Z,22.12
2018-05-29T10:55:47.383Z,22.17
2018-05-29T10:56:47.270Z,22.07
2018-05-29T10:57:47.157Z,21.94
2018-05-29T10:58:47.037Z,21.90
2018-05-29T10:59:46.925Z,22.09
2018-05-29T11:00:46.812Z,22.32
2018-05-29T11:01:46.695Z,22.59
2018-05-29T11:02:46.575Z,22.64
2018-05-29T11:03:46.463Z,22.74
2018-05-29T11:04:46.348Z,23.20
2018-05-29T11:05:46.232Z,23.53
2018-05-29T11:06:46.149Z,23.40
2018-05-29T11:07:46.001Z,22.68
2018-05-29T11:08:45.889Z,22.20
2018-05-29T11:09:45.776Z,22.27
2018-05-29T11:10:45.663Z,22.09
2018-05-29T11:11:45.545Z,21.94
2018-05-29T11:12:45.434Z,21.63
2018-05-29T11:13:45.317Z,21.51
2018-05-29T11:14:45.200Z,22.16
2018-05-29T11:15:45.088Z,22.57
2018-05-29T11:16:44.973Z,22.54
2018-05-29T11:17:44.856Z,22.67
2018-05-29T11:18:44.742Z,22.56
2018-05-29T11:19:44.631Z,22.52
2018-05-29T11:20:44.514Z,22.53
2018-05-29T11:21:44.397Z,22.69
2018-05-29T11:22:44.285Z,23.22
2018-05-29T11:23:44.171Z,22.99
2018-05-29T11:24:44.055Z,22.87
2018-05-29T11:25:43.941Z,22.72
2018-05-29T11:26:43.825Z,22.65
2018-05-29T11:27:43.715Z,22.56
2018-05-29T11:28:43.596Z,22.23
2018-05-29T11:29:43.481Z,21.90
2018-05-29T11:30:43.367Z,21.19
2018-05-29T11:31:43.253Z,21.36
2018-05-29T11:32:43.138Z,21.34
2018-05-29T11:33:43.023Z,21.44
2018-05-29T11:34:42.906Z,21.35
2018-05-29T11:35:42.793Z,21.48
2018-05-29T11:36:42.679Z,21.51
2018-05-29T11:37:42.562Z,21.61
2018-05-29T11:38:42.449Z,21.71
2018-05-29T11:39:42.334Z,21.67
2018-05-29T11:40:42.219Z,21.71
2018-05-29T11:41:42.104Z,21.81
2018-05-29T11:42:41.988Z,22.53
2018-05-29T11:43:41.872Z,23.46
2018-05-29T11:44:41.758Z,24.26
2018-05-29T11:45:41.642Z,24.97
2018-05-29T11:46:41.526Z,25.35
2018-05-29T11:47:41.413Z,25.38
2018-05-29T11:48:41.301Z,25.22
2018-05-29T11:49:41.184Z,25.02
2018-05-29T11:50:41.072Z,24.67
2018-05-29T11:51:40.959Z,23.98
2018-05-29T11:52:40.843Z,24.61
2018-05-29T11:53:40.727Z,24.75
2018-05-29T11:54:40.617Z,23.95
2018-05-29T11:55:40.501Z,23.86
2018-05-29T11:56:40.389Z,23.62
2018-05-29T11:57:40.278Z,23.64
2018-05-29T11:58:40.163Z,23.42
2018-05-29T11:59:40.048Z,23.34
2018-05-29T12:00:40.009Z,23.04
2018-05-29T12:01:39.884Z,22.89
2018-05-29T12:02:39.711Z,23.17
2018-05-29T12:03:39.594Z,23.15
2018-05-29T12:04:39.477Z,23.04
2018-05-29T12:05:39.367Z,23.07
2018-05-29T12:06:39.252Z,22.84
2018-05-29T12:07:39.199Z,22.67
2018-05-29T12:08:39.023Z,22.57
2018-05-29T12:09:38.910Z,22.59
2018-05-29T12:10:38.795Z,21.90
2018-05-29T12:11:38.684Z,21.98
2018-05-29T12:12:38.571Z,22.01
2018-05-29T12:13:38.455Z,21.74
2018-05-29T12:14:38.337Z,21.83
2018-05-29T12:15:38.226Z,21.85
2018-05-29T12:16:38.112Z,21.91
2018-05-29T12:17:38.000Z,22.06
2018-05-29T12:18:37.881Z,22.10
2018-05-29T12:19:37.766Z,22.12
2018-05-29T12:20:37.654Z,22.04
2018-05-29T12:21:37.539Z,21.78
2018-05-29T12:22:37.421Z,21.38
2018-05-29T12:23:37.309Z,21.44
2018-05-29T12:24:37.191Z,21.51
2018-05-29T12:25:37.080Z,21.59
2018-05-29T12:26:36.966Z,21.76
2018-05-29T12:27:36.849Z,21.85
2018-05-29T12:28:36.732Z,21.98
2018-05-29T12:29:36.620Z,22.13
2018-05-29T12:30:36.503Z,22.27
2018-05-29T12:31:36.388Z,22.20
2018-05-29T12:32:36.274Z,22.14
2018-05-29T12:33:36.196Z,22.12
2018-05-29T12:34:36.045Z,22.02
2018-05-29T12:35:35.926Z,21.78
2018-05-29T12:36:35.814Z,22.25
2018-05-29T12:37:35.698Z,23.68
2018-05-29T12:38:35.583Z,23.45
2018-05-29T12:39:35.468Z,22.77
2018-05-29T12:40:35.352Z,22.41
2018-05-29T12:41:35.239Z,22.43
2018-05-29T12:42:35.124Z,22.32
2018-05-29T12:43:35.008Z,22.10
2018-05-29T12:44:34.942Z,22.01
2018-05-29T12:45:34.781Z,21.94
2018-05-29T12:46:34.662Z,21.98
2018-05-29T12:47:34.557Z,22.06
2018-05-29T12:48:34.437Z,22.74
2018-05-29T12:49:34.321Z,23.42
2018-05-29T12:50:34.203Z,23.45